Skip Navigation Links Skip Navigation Links

Current Weather

Eureka, Nunavut

For information only: do not use for flight planning or navigation.
Latest weather
Observation time Sunday, January 21, 2018 2:00 PM CST
Local time Sunday, January 21, 2018 2:39 PM CST
Flight conditions Visual Meteorological Conditions
Winds
Wind speed calm
Visibility 10 mi.
Present weather light snow
Sky condition
Ceiling 8,000 ft. broken clouds
Cloud layer scattered clouds 2,000 ft.
Cloud layer broken clouds 8,000 ft.
Temperature -29°F
Dewpoint -35°F
Altimeter 30.14 in.Hg
Derived measurements
Relative humidity 74%
Wind chill -29°F
Density altitude -6715 ft.
Sea-level pressure 30.15 in.Hg
Remarks
Visibility west.
METAR CWEU 212000Z 00000KT 10SM -SN SCT020 BKN080 M34/M37 A3014 RMK SC3AC3 VIS W 5 BR SLP209

Settings

Location code

InnerDrive.Weather 4.0.6144.1 Release CLR 4.0.30319.36366
Copyright ©2015 Inner Drive Technology. All rights reserved. Portions Copyright ©1986-2015 David Braverman.

Find weather

Site navigation


Skip Navigation Links

Place info

Page info

PayPal - The safer, easier way to pay online!

Return home.

Copyright ©2018 Inner Drive Technology. Purveyors of fine, hand-crafted computer software. Page printed 2018-01-21T20:39:43 UTC.